sensor_id;sensor_type;location;lat;lon;timestamp;P1;durP1;ratioP1;P2;durP2;ratioP2
48875;SDS011;34689;51.644;5.618;2023-05-07T00:02:12;1.38;;;0.93;;
48875;SDS011;34689;51.644;5.618;2023-05-07T00:04:39;1.23;;;1.00;;
48875;SDS011;34689;51.644;5.618;2023-05-07T00:07:05;1.75;;;1.00;;
48875;SDS011;34689;51.644;5.618;2023-05-07T00:09:33;0.88;;;0.70;;
48875;SDS011;34689;51.644;5.618;2023-05-07T00:11:58;1.65;;;0.70;;
48875;SDS011;34689;51.644;5.618;2023-05-07T00:14:24;1.25;;;1.15;;
48875;SDS011;34689;51.644;5.618;2023-05-07T00:16:52;1.90;;;1.00;;
48875;SDS011;34689;51.644;5.618;2023-05-07T00:19:18;1.83;;;1.10;;
48875;SDS011;34689;51.644;5.618;2023-05-07T00:21:44;1.45;;;0.85;;
48875;SDS011;34689;51.644;5.618;2023-05-07T00:24:10;2.10;;;0.60;;
48875;SDS011;34689;51.644;5.618;2023-05-07T00:26:35;1.88;;;1.00;;
48875;SDS011;34689;51.644;5.618;2023-05-07T00:29:03;2.00;;;1.00;;
48875;SDS011;34689;51.644;5.618;2023-05-07T00:31:29;1.58;;;0.90;;
48875;SDS011;34689;51.644;5.618;2023-05-07T00:33:55;2.15;;;1.38;;
48875;SDS011;34689;51.644;5.618;2023-05-07T00:36:22;1.13;;;0.95;;
48875;SDS011;34689;51.644;5.618;2023-05-07T00:38:48;1.95;;;1.20;;
48875;SDS011;34689;51.644;5.618;2023-05-07T00:41:16;1.40;;;0.93;;
48875;SDS011;34689;51.644;5.618;2023-05-07T00:43:42;1.38;;;1.27;;
48875;SDS011;34689;51.644;5.618;2023-05-07T00:46:08;3.00;;;1.27;;
48875;SDS011;34689;51.644;5.618;2023-05-07T00:48:37;1.35;;;1.13;;
48875;SDS011;34689;51.644;5.618;2023-05-07T00:51:02;2.63;;;1.20;;
48875;SDS011;34689;51.644;5.618;2023-05-07T00:53:30;2.13;;;1.45;;
48875;SDS011;34689;51.644;5.618;2023-05-07T00:55:56;3.03;;;1.27;;
48875;SDS011;34689;51.644;5.618;2023-05-07T00:58:22;2.83;;;1.35;;
48875;SDS011;34689;51.644;5.618;2023-05-07T01:00:49;1.80;;;1.25;;
48875;SDS011;34689;51.644;5.618;2023-05-07T01:03:15;1.92;;;1.23;;
48875;SDS011;34689;51.644;5.618;2023-05-07T01:05:41;2.50;;;1.48;;
48875;SDS011;34689;51.644;5.618;2023-05-07T01:08:11;3.78;;;1.83;;
48875;SDS011;34689;51.644;5.618;2023-05-07T01:10:39;2.33;;;1.40;;
48875;SDS011;34689;51.644;5.618;2023-05-07T01:13:07;1.75;;;1.52;;
48875;SDS011;34689;51.644;5.618;2023-05-07T01:15:37;2.65;;;1.58;;
48875;SDS011;34689;51.644;5.618;2023-05-07T01:18:05;2.90;;;1.58;;
48875;SDS011;34689;51.644;5.618;2023-05-07T01:20:31;2.63;;;1.67;;
48875;SDS011;34689;51.644;5.618;2023-05-07T01:23:00;2.88;;;1.42;;
48875;SDS011;34689;51.644;5.618;2023-05-07T01:25:28;1.70;;;1.40;;
48875;SDS011;34689;51.644;5.618;2023-05-07T01:27:54;1.77;;;1.35;;
48875;SDS011;34689;51.644;5.618;2023-05-07T01:30:22;2.60;;;1.80;;
48875;SDS011;34689;51.644;5.618;2023-05-07T01:32:51;3.25;;;2.25;;
48875;SDS011;34689;51.644;5.618;2023-05-07T01:35:21;2.83;;;1.77;;
48875;SDS011;34689;51.644;5.618;2023-05-07T01:37:50;2.15;;;1.73;;
48875;SDS011;34689;51.644;5.618;2023-05-07T01:40:18;2.15;;;1.60;;
48875;SDS011;34689;51.644;5.618;2023-05-07T01:42:44;2.47;;;1.65;;
48875;SDS011;34689;51.644;5.618;2023-05-07T01:45:11;2.65;;;1.77;;
48875;SDS011;34689;51.644;5.618;2023-05-07T01:47:37;4.03;;;2.03;;
48875;SDS011;34689;51.644;5.618;2023-05-07T01:50:06;2.97;;;2.03;;
48875;SDS011;34689;51.644;5.618;2023-05-07T01:52:38;2.65;;;1.83;;
48875;SDS011;34689;51.644;5.618;2023-05-07T01:55:05;2.80;;;2.05;;
48875;SDS011;34689;51.644;5.618;2023-05-07T01:57:31;2.25;;;1.80;;
48875;SDS011;34689;51.644;5.618;2023-05-07T01:59:57;2.95;;;2.08;;
48875;SDS011;34689;51.644;5.618;2023-05-07T02:02:22;3.42;;;2.00;;
48875;SDS011;34689;51.644;5.618;2023-05-07T02:04:48;4.97;;;2.58;;
48875;SDS011;34689;51.644;5.618;2023-05-07T02:07:14;3.30;;;2.40;;
48875;SDS011;34689;51.644;5.618;2023-05-07T02:09:40;7.43;;;2.72;;
48875;SDS011;34689;51.644;5.618;2023-05-07T02:12:05;4.82;;;2.97;;
48875;SDS011;34689;51.644;5.618;2023-05-07T02:14:31;4.80;;;2.42;;
48875;SDS011;34689;51.644;5.618;2023-05-07T02:16:57;4.38;;;2.45;;
48875;SDS011;34689;51.644;5.618;2023-05-07T02:19:23;3.83;;;2.85;;
48875;SDS011;34689;51.644;5.618;2023-05-07T02:21:51;4.72;;;2.72;;
48875;SDS011;34689;51.644;5.618;2023-05-07T02:24:19;2.30;;;2.10;;
48875;SDS011;34689;51.644;5.618;2023-05-07T02:26:45;4.25;;;3.22;;
48875;SDS011;34689;51.644;5.618;2023-05-07T02:29:10;3.97;;;2.90;;
48875;SDS011;34689;51.644;5.618;2023-05-07T02:31:39;4.20;;;2.78;;
48875;SDS011;34689;51.644;5.618;2023-05-07T02:34:04;4.60;;;2.65;;
48875;SDS011;34689;51.644;5.618;2023-05-07T02:36:30;3.40;;;2.47;;
48875;SDS011;34689;51.644;5.618;2023-05-07T02:38:56;3.85;;;2.58;;
48875;SDS011;34689;51.644;5.618;2023-05-07T02:41:24;4.05;;;3.30;;
48875;SDS011;34689;51.644;5.618;2023-05-07T02:43:49;4.80;;;3.17;;
48875;SDS011;34689;51.644;5.618;2023-05-07T02:46:15;6.18;;;3.30;;
48875;SDS011;34689;51.644;5.618;2023-05-07T02:48:41;4.30;;;3.17;;
48875;SDS011;34689;51.644;5.618;2023-05-07T02:51:08;3.00;;;2.50;;
48875;SDS011;34689;51.644;5.618;2023-05-07T02:53:34;4.35;;;3.05;;
48875;SDS011;34689;51.644;5.618;2023-05-07T02:56:00;4.55;;;2.95;;
48875;SDS011;34689;51.644;5.618;2023-05-07T02:58:26;4.53;;;2.85;;
48875;SDS011;34689;51.644;5.618;2023-05-07T03:00:52;3.92;;;3.00;;
48875;SDS011;34689;51.644;5.618;2023-05-07T03:03:19;3.95;;;3.05;;
48875;SDS011;34689;51.644;5.618;2023-05-07T03:05:45;4.32;;;3.08;;
48875;SDS011;34689;51.644;5.618;2023-05-07T03:08:11;4.55;;;3.28;;
48875;SDS011;34689;51.644;5.618;2023-05-07T03:10:37;5.43;;;3.28;;
48875;SDS011;34689;51.644;5.618;2023-05-07T03:13:03;4.57;;;3.25;;
48875;SDS011;34689;51.644;5.618;2023-05-07T03:15:29;2.65;;;2.35;;
48875;SDS011;34689;51.644;5.618;2023-05-07T03:17:54;4.53;;;3.58;;
48875;SDS011;34689;51.644;5.618;2023-05-07T03:20:20;4.82;;;3.53;;
48875;SDS011;34689;51.644;5.618;2023-05-07T03:22:46;6.07;;;3.38;;
48875;SDS011;34689;51.644;5.618;2023-05-07T03:25:12;4.93;;;3.85;;
48875;SDS011;34689;51.644;5.618;2023-05-07T03:27:40;7.32;;;4.00;;
48875;SDS011;34689;51.644;5.618;2023-05-07T03:30:08;5.85;;;3.55;;
48875;SDS011;34689;51.644;5.618;2023-05-07T03:32:34;4.57;;;3.08;;
48875;SDS011;34689;51.644;5.618;2023-05-07T03:35:04;4.40;;;3.47;;
48875;SDS011;34689;51.644;5.618;2023-05-07T03:37:30;4.07;;;3.35;;
48875;SDS011;34689;51.644;5.618;2023-05-07T03:39:57;6.10;;;3.80;;
48875;SDS011;34689;51.644;5.618;2023-05-07T03:42:23;6.25;;;3.95;;
48875;SDS011;34689;51.644;5.618;2023-05-07T03:44:49;7.22;;;3.28;;
48875;SDS011;34689;51.644;5.618;2023-05-07T03:47:15;5.80;;;3.60;;
48875;SDS011;34689;51.644;5.618;2023-05-07T03:49:43;4.60;;;3.92;;
48875;SDS011;34689;51.644;5.618;2023-05-07T03:52:09;4.20;;;3.53;;
48875;SDS011;34689;51.644;5.618;2023-05-07T03:54:34;6.60;;;4.05;;
48875;SDS011;34689;51.644;5.618;2023-05-07T03:57:02;5.47;;;3.85;;
48875;SDS011;34689;51.644;5.618;2023-05-07T03:59:28;5.30;;;4.07;;
48875;SDS011;34689;51.644;5.618;2023-05-07T04:01:54;5.53;;;4.10;;
48875;SDS011;34689;51.644;5.618;2023-05-07T04:04:21;6.72;;;4.15;;
48875;SDS011;34689;51.644;5.618;2023-05-07T04:06:47;5.35;;;3.97;;
48875;SDS011;34689;51.644;5.618;2023-05-07T04:09:13;6.75;;;4.88;;
48875;SDS011;34689;51.644;5.618;2023-05-07T04:11:41;6.50;;;3.83;;
48875;SDS011;34689;51.644;5.618;2023-05-07T04:14:06;5.53;;;3.92;;
48875;SDS011;34689;51.644;5.618;2023-05-07T04:16:34;8.35;;;4.93;;
48875;SDS011;34689;51.644;5.618;2023-05-07T04:19:02;9.32;;;5.30;;
48875;SDS011;34689;51.644;5.618;2023-05-07T04:21:30;7.70;;;5.32;;
48875;SDS011;34689;51.644;5.618;2023-05-07T04:23:56;6.45;;;4.93;;
48875;SDS011;34689;51.644;5.618;2023-05-07T04:26:22;6.32;;;3.95;;
48875;SDS011;34689;51.644;5.618;2023-05-07T04:28:53;7.78;;;4.63;;
48875;SDS011;34689;51.644;5.618;2023-05-07T04:31:21;5.55;;;4.07;;
48875;SDS011;34689;51.644;5.618;2023-05-07T04:33:47;8.05;;;4.55;;
48875;SDS011;34689;51.644;5.618;2023-05-07T04:36:13;7.22;;;4.78;;
48875;SDS011;34689;51.644;5.618;2023-05-07T04:38:39;5.68;;;4.03;;
48875;SDS011;34689;51.644;5.618;2023-05-07T04:41:05;7.35;;;5.32;;
48875;SDS011;34689;51.644;5.618;2023-05-07T04:43:31;6.72;;;4.93;;
48875;SDS011;34689;51.644;5.618;2023-05-07T04:45:58;6.85;;;5.18;;
48875;SDS011;34689;51.644;5.618;2023-05-07T04:48:24;7.28;;;5.05;;
48875;SDS011;34689;51.644;5.618;2023-05-07T04:50:53;6.28;;;5.28;;
48875;SDS011;34689;51.644;5.618;2023-05-07T04:53:19;6.32;;;4.53;;
48875;SDS011;34689;51.644;5.618;2023-05-07T04:55:46;5.60;;;4.63;;
48875;SDS011;34689;51.644;5.618;2023-05-07T04:58:12;7.05;;;4.88;;
48875;SDS011;34689;51.644;5.618;2023-05-07T05:00:38;7.25;;;4.90;;
48875;SDS011;34689;51.644;5.618;2023-05-07T05:03:07;7.38;;;5.22;;
48875;SDS011;34689;51.644;5.618;2023-05-07T05:05:33;6.82;;;4.78;;
48875;SDS011;34689;51.644;5.618;2023-05-07T05:08:01;7.18;;;5.78;;
48875;SDS011;34689;51.644;5.618;2023-05-07T05:10:27;7.50;;;5.05;;
48875;SDS011;34689;51.644;5.618;2023-05-07T05:12:53;6.40;;;5.53;;
48875;SDS011;34689;51.644;5.618;2023-05-07T05:15:21;7.55;;;5.43;;
48875;SDS011;34689;51.644;5.618;2023-05-07T05:17:46;5.90;;;4.32;;
48875;SDS011;34689;51.644;5.618;2023-05-07T05:20:12;6.28;;;4.57;;
48875;SDS011;34689;51.644;5.618;2023-05-07T05:22:39;7.82;;;5.03;;
48875;SDS011;34689;51.644;5.618;2023-05-07T05:25:06;7.75;;;5.65;;
48875;SDS011;34689;51.644;5.618;2023-05-07T05:27:32;6.57;;;4.57;;
48875;SDS011;34689;51.644;5.618;2023-05-07T05:29:57;5.70;;;4.28;;
48875;SDS011;34689;51.644;5.618;2023-05-07T05:32:25;5.65;;;4.60;;
48875;SDS011;34689;51.644;5.618;2023-05-07T05:34:51;6.13;;;4.80;;
48875;SDS011;34689;51.644;5.618;2023-05-07T05:37:16;5.57;;;4.25;;
48875;SDS011;34689;51.644;5.618;2023-05-07T05:39:42;6.82;;;4.65;;
48875;SDS011;34689;51.644;5.618;2023-05-07T05:42:09;6.13;;;4.90;;
48875;SDS011;34689;51.644;5.618;2023-05-07T05:44:34;5.88;;;4.28;;
48875;SDS011;34689;51.644;5.618;2023-05-07T05:47:02;6.60;;;4.38;;
48875;SDS011;34689;51.644;5.618;2023-05-07T05:49:28;6.25;;;4.38;;
48875;SDS011;34689;51.644;5.618;2023-05-07T05:51:54;7.15;;;4.35;;
48875;SDS011;34689;51.644;5.618;2023-05-07T05:54:20;6.90;;;4.65;;
48875;SDS011;34689;51.644;5.618;2023-05-07T05:56:46;5.82;;;4.18;;
48875;SDS011;34689;51.644;5.618;2023-05-07T05:59:14;6.28;;;4.68;;
48875;SDS011;34689;51.644;5.618;2023-05-07T06:01:40;4.90;;;3.85;;
48875;SDS011;34689;51.644;5.618;2023-05-07T06:04:06;5.85;;;4.97;;
48875;SDS011;34689;51.644;5.618;2023-05-07T06:06:32;7.95;;;3.90;;
48875;SDS011;34689;51.644;5.618;2023-05-07T06:09:00;6.80;;;4.50;;
48875;SDS011;34689;51.644;5.618;2023-05-07T06:11:26;5.25;;;3.83;;
48875;SDS011;34689;51.644;5.618;2023-05-07T06:13:52;5.13;;;3.92;;
48875;SDS011;34689;51.644;5.618;2023-05-07T06:16:20;5.25;;;3.15;;
48875;SDS011;34689;51.644;5.618;2023-05-07T06:18:49;5.32;;;4.13;;
48875;SDS011;34689;51.644;5.618;2023-05-07T06:21:15;5.03;;;3.85;;
48875;SDS011;34689;51.644;5.618;2023-05-07T06:23:40;7.20;;;4.43;;
48875;SDS011;34689;51.644;5.618;2023-05-07T06:26:06;4.90;;;3.53;;
48875;SDS011;34689;51.644;5.618;2023-05-07T06:28:32;6.05;;;4.07;;
48875;SDS011;34689;51.644;5.618;2023-05-07T06:33:43;5.47;;;3.67;;
48875;SDS011;34689;51.644;5.618;2023-05-07T06:36:09;6.43;;;3.80;;
48875;SDS011;34689;51.644;5.618;2023-05-07T06:38:35;3.60;;;3.00;;
48875;SDS011;34689;51.644;5.618;2023-05-07T06:41:01;3.65;;;3.00;;
48875;SDS011;34689;51.644;5.618;2023-05-07T06:43:26;4.20;;;2.97;;
48875;SDS011;34689;51.644;5.618;2023-05-07T06:45:52;4.57;;;3.10;;
48875;SDS011;34689;51.644;5.618;2023-05-07T06:48:18;4.00;;;2.97;;
48875;SDS011;34689;51.644;5.618;2023-05-07T06:50:43;4.55;;;3.33;;
48875;SDS011;34689;51.644;5.618;2023-05-07T06:53:11;4.78;;;3.47;;
48875;SDS011;34689;51.644;5.618;2023-05-07T06:55:39;3.78;;;3.30;;
48875;SDS011;34689;51.644;5.618;2023-05-07T06:58:06;3.75;;;3.17;;
48875;SDS011;34689;51.644;5.618;2023-05-07T07:00:32;4.93;;;3.80;;
48875;SDS011;34689;51.644;5.618;2023-05-07T07:02:58;4.93;;;3.88;;
48875;SDS011;34689;51.644;5.618;2023-05-07T07:05:26;5.05;;;3.67;;
48875;SDS011;34689;51.644;5.618;2023-05-07T07:07:52;5.57;;;4.00;;
48875;SDS011;34689;51.644;5.618;2023-05-07T07:10:23;4.45;;;3.45;;
48875;SDS011;34689;51.644;5.618;2023-05-07T07:12:51;4.30;;;2.97;;
48875;SDS011;34689;51.644;5.618;2023-05-07T07:15:17;3.60;;;2.60;;
48875;SDS011;34689;51.644;5.618;2023-05-07T07:17:46;3.60;;;2.80;;
48875;SDS011;34689;51.644;5.618;2023-05-07T07:20:13;4.10;;;3.17;;
48875;SDS011;34689;51.644;5.618;2023-05-07T07:22:38;4.75;;;3.55;;
48875;SDS011;34689;51.644;5.618;2023-05-07T07:25:04;4.53;;;3.47;;
48875;SDS011;34689;51.644;5.618;2023-05-07T07:27:30;3.50;;;2.80;;
48875;SDS011;34689;51.644;5.618;2023-05-07T07:29:56;5.30;;;3.80;;
48875;SDS011;34689;51.644;5.618;2023-05-07T07:32:21;4.00;;;2.92;;
48875;SDS011;34689;51.644;5.618;2023-05-07T07:34:47;5.43;;;3.13;;
48875;SDS011;34689;51.644;5.618;2023-05-07T07:37:13;4.15;;;3.50;;
48875;SDS011;34689;51.644;5.618;2023-05-07T07:39:38;5.30;;;3.55;;
48875;SDS011;34689;51.644;5.618;2023-05-07T07:42:04;5.32;;;4.18;;
48875;SDS011;34689;51.644;5.618;2023-05-07T07:44:30;5.57;;;4.22;;
48875;SDS011;34689;51.644;5.618;2023-05-07T07:46:56;4.95;;;4.22;;
48875;SDS011;34689;51.644;5.618;2023-05-07T07:49:23;4.88;;;3.42;;
48875;SDS011;34689;51.644;5.618;2023-05-07T07:51:49;4.55;;;3.83;;
48875;SDS011;34689;51.644;5.618;2023-05-07T07:54:16;6.07;;;3.65;;
48875;SDS011;34689;51.644;5.618;2023-05-07T07:56:44;6.50;;;4.40;;
48875;SDS011;34689;51.644;5.618;2023-05-07T07:59:13;3.97;;;3.22;;
48875;SDS011;34689;51.644;5.618;2023-05-07T08:01:42;5.40;;;4.57;;
48875;SDS011;34689;51.644;5.618;2023-05-07T08:04:08;6.63;;;4.15;;
48875;SDS011;34689;51.644;5.618;2023-05-07T08:06:34;7.47;;;4.68;;
48875;SDS011;34689;51.644;5.618;2023-05-07T08:09:02;4.57;;;3.65;;
48875;SDS011;34689;51.644;5.618;2023-05-07T08:11:28;4.88;;;3.67;;
48875;SDS011;34689;51.644;5.618;2023-05-07T08:13:54;4.78;;;3.40;;
48875;SDS011;34689;51.644;5.618;2023-05-07T08:16:20;4.80;;;3.60;;
48875;SDS011;34689;51.644;5.618;2023-05-07T08:18:46;4.70;;;3.40;;
48875;SDS011;34689;51.644;5.618;2023-05-07T08:21:14;5.20;;;3.28;;
48875;SDS011;34689;51.644;5.618;2023-05-07T08:23:41;4.57;;;3.65;;
48875;SDS011;34689;51.644;5.618;2023-05-07T08:26:10;5.78;;;3.75;;
48875;SDS011;34689;51.644;5.618;2023-05-07T08:28:38;5.28;;;3.40;;
48875;SDS011;34689;51.644;5.618;2023-05-07T08:31:04;4.72;;;3.80;;
48875;SDS011;34689;51.644;5.618;2023-05-07T08:33:32;7.85;;;5.25;;
48875;SDS011;34689;51.644;5.618;2023-05-07T08:35:58;5.53;;;4.15;;
48875;SDS011;34689;51.644;5.618;2023-05-07T08:38:26;5.57;;;3.80;;
48875;SDS011;34689;51.644;5.618;2023-05-07T08:40:54;7.85;;;5.93;;
48875;SDS011;34689;51.644;5.618;2023-05-07T08:43:22;6.32;;;4.55;;
48875;SDS011;34689;51.644;5.618;2023-05-07T08:45:53;6.07;;;4.30;;
48875;SDS011;34689;51.644;5.618;2023-05-07T08:48:23;7.45;;;3.72;;
48875;SDS011;34689;51.644;5.618;2023-05-07T08:50:58;6.32;;;4.72;;
48875;SDS011;34689;51.644;5.618;2023-05-07T08:53:26;6.93;;;5.25;;
48875;SDS011;34689;51.644;5.618;2023-05-07T08:55:54;7.07;;;5.35;;
48875;SDS011;34689;51.644;5.618;2023-05-07T08:58:23;5.80;;;4.57;;
48875;SDS011;34689;51.644;5.618;2023-05-07T09:00:51;5.57;;;4.20;;
48875;SDS011;34689;51.644;5.618;2023-05-07T09:03:19;6.45;;;4.72;;
48875;SDS011;34689;51.644;5.618;2023-05-07T09:05:44;7.18;;;4.03;;
48875;SDS011;34689;51.644;5.618;2023-05-07T09:08:14;6.78;;;4.18;;
48875;SDS011;34689;51.644;5.618;2023-05-07T09:10:42;4.30;;;2.83;;
48875;SDS011;34689;51.644;5.618;2023-05-07T09:13:08;4.35;;;3.75;;
48875;SDS011;34689;51.644;5.618;2023-05-07T09:15:38;7.25;;;5.47;;
48875;SDS011;34689;51.644;5.618;2023-05-07T09:18:03;6.78;;;5.35;;
48875;SDS011;34689;51.644;5.618;2023-05-07T09:20:32;5.50;;;4.63;;
48875;SDS011;34689;51.644;5.618;2023-05-07T09:22:58;7.32;;;4.97;;
48875;SDS011;34689;51.644;5.618;2023-05-07T09:25:30;5.55;;;4.32;;
48875;SDS011;34689;51.644;5.618;2023-05-07T09:27:57;6.18;;;4.70;;
48875;SDS011;34689;51.644;5.618;2023-05-07T09:30:27;8.27;;;5.15;;
48875;SDS011;34689;51.644;5.618;2023-05-07T09:32:56;5.50;;;4.13;;
48875;SDS011;34689;51.644;5.618;2023-05-07T09:35:26;5.32;;;3.88;;
48875;SDS011;34689;51.644;5.618;2023-05-07T09:37:57;3.97;;;3.00;;
48875;SDS011;34689;51.644;5.618;2023-05-07T09:40:25;4.32;;;3.58;;
48875;SDS011;34689;51.644;5.618;2023-05-07T09:42:52;7.80;;;4.50;;
48875;SDS011;34689;51.644;5.618;2023-05-07T09:45:22;4.85;;;3.65;;
48875;SDS011;34689;51.644;5.618;2023-05-07T09:47:49;5.40;;;3.67;;
48875;SDS011;34689;51.644;5.618;2023-05-07T09:50:22;5.15;;;4.13;;
48875;SDS011;34689;51.644;5.618;2023-05-07T09:52:54;5.43;;;3.70;;
48875;SDS011;34689;51.644;5.618;2023-05-07T09:55:22;5.38;;;4.55;;
48875;SDS011;34689;51.644;5.618;2023-05-07T09:57:52;5.60;;;3.83;;
48875;SDS011;34689;51.644;5.618;2023-05-07T10:00:19;4.22;;;3.60;;
48875;SDS011;34689;51.644;5.618;2023-05-07T10:02:50;4.93;;;4.00;;
48875;SDS011;34689;51.644;5.618;2023-05-07T10:05:21;5.18;;;4.00;;
48875;SDS011;34689;51.644;5.618;2023-05-07T10:07:47;4.75;;;3.60;;
48875;SDS011;34689;51.644;5.618;2023-05-07T10:10:14;5.47;;;4.32;;
48875;SDS011;34689;51.644;5.618;2023-05-07T10:12:41;4.63;;;3.30;;
48875;SDS011;34689;51.644;5.618;2023-05-07T10:15:09;5.05;;;3.42;;
48875;SDS011;34689;51.644;5.618;2023-05-07T10:17:37;3.92;;;3.50;;
48875;SDS011;34689;51.644;5.618;2023-05-07T10:20:04;4.38;;;3.33;;
48875;SDS011;34689;51.644;5.618;2023-05-07T10:22:40;3.63;;;2.75;;
48875;SDS011;34689;51.644;5.618;2023-05-07T10:25:30;6.80;;;3.88;;
48875;SDS011;34689;51.644;5.618;2023-05-07T10:27:55;3.72;;;3.10;;
48875;SDS011;34689;51.644;5.618;2023-05-07T10:30:40;4.57;;;4.10;;
48875;SDS011;34689;51.644;5.618;2023-05-07T10:33:10;4.63;;;2.88;;
48875;SDS011;34689;51.644;5.618;2023-05-07T10:35:39;4.10;;;3.20;;
48875;SDS011;34689;51.644;5.618;2023-05-07T10:38:07;4.00;;;3.38;;
48875;SDS011;34689;51.644;5.618;2023-05-07T10:40:33;3.55;;;2.80;;
48875;SDS011;34689;51.644;5.618;2023-05-07T10:43:00;4.82;;;3.78;;
48875;SDS011;34689;51.644;5.618;2023-05-07T10:45:29;5.13;;;3.53;;
48875;SDS011;34689;51.644;5.618;2023-05-07T10:50:30;4.00;;;3.15;;
48875;SDS011;34689;51.644;5.618;2023-05-07T10:58:27;4.80;;;4.05;;
48875;SDS011;34689;51.644;5.618;2023-05-07T11:01:00;4.25;;;3.13;;
48875;SDS011;34689;51.644;5.618;2023-05-07T11:03:26;4.70;;;3.90;;
48875;SDS011;34689;51.644;5.618;2023-05-07T11:11:18;4.38;;;3.00;;
48875;SDS011;34689;51.644;5.618;2023-05-07T11:13:47;5.25;;;3.10;;
48875;SDS011;34689;51.644;5.618;2023-05-07T11:18:47;6.75;;;2.70;;
48875;SDS011;34689;51.644;5.618;2023-05-07T11:23:59;3.95;;;2.53;;
48875;SDS011;34689;51.644;5.618;2023-05-07T11:26:26;2.92;;;2.63;;
48875;SDS011;34689;51.644;5.618;2023-05-07T11:28:54;2.83;;;2.10;;
48875;SDS011;34689;51.644;5.618;2023-05-07T11:31:24;3.20;;;2.22;;
48875;SDS011;34689;51.644;5.618;2023-05-07T11:33:51;2.55;;;2.13;;
48875;SDS011;34689;51.644;5.618;2023-05-07T11:36:21;2.47;;;1.80;;
48875;SDS011;34689;51.644;5.618;2023-05-07T11:38:51;5.13;;;2.05;;
48875;SDS011;34689;51.644;5.618;2023-05-07T11:41:16;3.42;;;2.47;;
48875;SDS011;34689;51.644;5.618;2023-05-07T11:43:57;2.95;;;1.70;;
48875;SDS011;34689;51.644;5.618;2023-05-07T11:46:24;2.33;;;1.70;;
48875;SDS011;34689;51.644;5.618;2023-05-07T11:48:53;3.50;;;1.80;;
48875;SDS011;34689;51.644;5.618;2023-05-07T11:51:20;2.50;;;1.70;;
48875;SDS011;34689;51.644;5.618;2023-05-07T11:53:48;2.00;;;1.30;;
48875;SDS011;34689;51.644;5.618;2023-05-07T11:56:14;3.53;;;2.00;;
48875;SDS011;34689;51.644;5.618;2023-05-07T11:58:42;3.30;;;1.88;;
48875;SDS011;34689;51.644;5.618;2023-05-07T12:01:09;1.65;;;1.10;;
48875;SDS011;34689;51.644;5.618;2023-05-07T12:03:36;2.88;;;1.70;;
48875;SDS011;34689;51.644;5.618;2023-05-07T12:06:02;3.97;;;1.55;;
48875;SDS011;34689;51.644;5.618;2023-05-07T12:08:30;2.03;;;1.42;;
48875;SDS011;34689;51.644;5.618;2023-05-07T12:11:01;4.13;;;1.80;;
48875;SDS011;34689;51.644;5.618;2023-05-07T12:13:26;1.98;;;1.33;;
48875;SDS011;34689;51.644;5.618;2023-05-07T12:15:53;2.60;;;1.50;;
48875;SDS011;34689;51.644;5.618;2023-05-07T12:18:20;2.42;;;1.58;;
48875;SDS011;34689;51.644;5.618;2023-05-07T12:20:47;4.03;;;2.20;;
48875;SDS011;34689;51.644;5.618;2023-05-07T12:23:13;3.53;;;2.28;;
48875;SDS011;34689;51.644;5.618;2023-05-07T12:25:42;2.63;;;1.70;;
48875;SDS011;34689;51.644;5.618;2023-05-07T12:28:15;3.20;;;1.75;;
48875;SDS011;34689;51.644;5.618;2023-05-07T12:30:44;2.25;;;1.70;;
48875;SDS011;34689;51.644;5.618;2023-05-07T12:33:19;3.35;;;2.22;;
48875;SDS011;34689;51.644;5.618;2023-05-07T12:35:48;1.48;;;1.30;;
48875;SDS011;34689;51.644;5.618;2023-05-07T12:38:15;2.63;;;1.65;;
48875;SDS011;34689;51.644;5.618;2023-05-07T12:43:19;2.50;;;1.98;;
48875;SDS011;34689;51.644;5.618;2023-05-07T12:45:49;2.25;;;1.60;;
48875;SDS011;34689;51.644;5.618;2023-05-07T12:48:17;2.42;;;2.15;;
48875;SDS011;34689;51.644;5.618;2023-05-07T12:50:44;2.10;;;1.85;;
48875;SDS011;34689;51.644;5.618;2023-05-07T12:53:11;2.22;;;1.98;;
48875;SDS011;34689;51.644;5.618;2023-05-07T12:55:44;2.67;;;1.95;;
48875;SDS011;34689;51.644;5.618;2023-05-07T12:58:15;4.03;;;1.85;;
48875;SDS011;34689;51.644;5.618;2023-05-07T13:00:47;3.22;;;2.08;;
48875;SDS011;34689;51.644;5.618;2023-05-07T13:03:21;2.50;;;2.00;;
48875;SDS011;34689;51.644;5.618;2023-05-07T13:05:56;2.67;;;1.85;;
48875;SDS011;34689;51.644;5.618;2023-05-07T13:08:27;2.55;;;2.03;;
48875;SDS011;34689;51.644;5.618;2023-05-07T13:11:01;2.10;;;1.67;;
48875;SDS011;34689;51.644;5.618;2023-05-07T13:13:32;2.70;;;1.42;;
48875;SDS011;34689;51.644;5.618;2023-05-07T13:15:58;2.92;;;1.52;;
48875;SDS011;34689;51.644;5.618;2023-05-07T13:18:25;1.77;;;1.40;;
48875;SDS011;34689;51.644;5.618;2023-05-07T13:20:52;1.33;;;1.17;;
48875;SDS011;34689;51.644;5.618;2023-05-07T13:23:18;5.57;;;2.65;;
48875;SDS011;34689;51.644;5.618;2023-05-07T13:25:44;4.35;;;2.83;;
48875;SDS011;34689;51.644;5.618;2023-05-07T13:28:10;3.65;;;2.03;;
48875;SDS011;34689;51.644;5.618;2023-05-07T13:30:37;2.58;;;1.77;;
48875;SDS011;34689;51.644;5.618;2023-05-07T13:33:05;1.15;;;0.60;;
48875;SDS011;34689;51.644;5.618;2023-05-07T13:35:33;1.88;;;0.40;;
48875;SDS011;34689;51.644;5.618;2023-05-07T13:37:59;0.25;;;0.20;;
48875;SDS011;34689;51.644;5.618;2023-05-07T13:40:25;0.28;;;0.25;;
48875;SDS011;34689;51.644;5.618;2023-05-07T13:42:51;1.48;;;0.13;;
48875;SDS011;34689;51.644;5.618;2023-05-07T13:45:18;0.45;;;0.30;;
48875;SDS011;34689;51.644;5.618;2023-05-07T13:47:50;0.17;;;0.10;;
48875;SDS011;34689;51.644;5.618;2023-05-07T13:50:21;0.32;;;0.20;;
48875;SDS011;34689;51.644;5.618;2023-05-07T13:52:47;0.32;;;0.32;;
48875;SDS011;34689;51.644;5.618;2023-05-07T13:55:20;0.50;;;0.20;;
48875;SDS011;34689;51.644;5.618;2023-05-07T13:57:47;0.57;;;0.45;;
48875;SDS011;34689;51.644;5.618;2023-05-07T14:00:19;0.90;;;0.40;;
48875;SDS011;34689;51.644;5.618;2023-05-07T14:02:47;0.30;;;0.20;;
48875;SDS011;34689;51.644;5.618;2023-05-07T14:05:13;0.43;;;0.13;;
48875;SDS011;34689;51.644;5.618;2023-05-07T14:07:39;1.50;;;0.38;;
48875;SDS011;34689;51.644;5.618;2023-05-07T14:10:10;1.88;;;0.28;;
48875;SDS011;34689;51.644;5.618;2023-05-07T14:12:38;0.63;;;0.43;;
48875;SDS011;34689;51.644;5.618;2023-05-07T14:15:06;1.80;;;0.30;;
48875;SDS011;34689;51.644;5.618;2023-05-07T14:17:37;0.20;;;0.10;;
48875;SDS011;34689;51.644;5.618;2023-05-07T14:20:03;0.43;;;0.22;;
48875;SDS011;34689;51.644;5.618;2023-05-07T14:22:33;1.77;;;0.80;;
48875;SDS011;34689;51.644;5.618;2023-05-07T14:25:05;0.82;;;0.47;;
48875;SDS011;34689;51.644;5.618;2023-05-07T14:27:37;0.40;;;0.40;;
48875;SDS011;34689;51.644;5.618;2023-05-07T14:30:06;0.50;;;0.43;;
48875;SDS011;34689;51.644;5.618;2023-05-07T14:32:33;1.02;;;0.50;;
48875;SDS011;34689;51.644;5.618;2023-05-07T14:34:59;0.65;;;0.45;;
48875;SDS011;34689;51.644;5.618;2023-05-07T14:37:25;0.40;;;0.30;;
48875;SDS011;34689;51.644;5.618;2023-05-07T14:39:54;1.27;;;0.65;;
48875;SDS011;34689;51.644;5.618;2023-05-07T14:42:19;0.40;;;0.40;;
48875;SDS011;34689;51.644;5.618;2023-05-07T14:44:45;1.15;;;0.50;;
48875;SDS011;34689;51.644;5.618;2023-05-07T14:47:13;0.47;;;0.40;;
48875;SDS011;34689;51.644;5.618;2023-05-07T14:49:40;1.17;;;0.50;;
48875;SDS011;34689;51.644;5.618;2023-05-07T14:52:07;0.57;;;0.47;;
48875;SDS011;34689;51.644;5.618;2023-05-07T14:54:36;3.33;;;0.73;;
48875;SDS011;34689;51.644;5.618;2023-05-07T14:57:04;2.05;;;1.27;;
48875;SDS011;34689;51.644;5.618;2023-05-07T14:59:37;0.40;;;0.40;;
48875;SDS011;34689;51.644;5.618;2023-05-07T15:02:07;0.82;;;0.68;;
48875;SDS011;34689;51.644;5.618;2023-05-07T15:04:33;0.75;;;0.70;;
48875;SDS011;34689;51.644;5.618;2023-05-07T15:07:00;0.70;;;0.70;;
48875;SDS011;34689;51.644;5.618;2023-05-07T15:09:31;1.38;;;1.05;;
48875;SDS011;34689;51.644;5.618;2023-05-07T15:12:00;1.25;;;0.90;;
48875;SDS011;34689;51.644;5.618;2023-05-07T15:14:29;1.35;;;0.80;;